Time;durP1;ratioP1;P1;durP2;ratioP2;P2;SDS_P1;SDS_P2;PMS_P1;PMS_P2;Temp;Humidity;BMP_temperature;BMP_pressure;BME280_temperature;BME280_humidity;BME280_pressure;Samples;Min_cycle;Max_cycle;Signal;HPM_P1;HPM_P2
2022/06/08 05:25:36;;;;;;;9.15;2.72;;;;;;;;;;5384618;23;20063;-59
2022/06/08 05:28:03;;;;;;;5.00;2.40;;;;;;;;;;4932939;29;20059;-62
2022/06/08 05:30:29;;;;;;;6.90;2.60;;;;;;;;;;4933680;29;20035;-59
2022/06/08 05:32:55;;;;;;;8.10;2.70;;;;;;;;;;4930785;29;20034;-60
2022/06/08 05:35:23;;;;;;;9.68;2.80;;;;;;;;;;4937171;29;20414;-65
2022/06/08 05:37:49;;;;;;;8.18;2.47;;;;;;;;;;4918879;29;20387;-61
2022/06/08 05:40:15;;;;;;;4.63;2.47;;;;;;;;;;4936547;29;20472;-60
2022/06/08 05:42:41;;;;;;;6.60;2.67;;;;;;;;;;4936272;29;20058;-63
2022/06/08 05:45:09;;;;;;;6.85;2.92;;;;;;;;;;4934851;29;20027;-61
2022/06/08 05:47:35;;;;;;;10.68;3.10;;;;;;;;;;4936084;29;20126;-59
2022/06/08 05:50:01;;;;;;;6.38;2.85;;;;;;;;;;4917675;29;20035;-60
2022/06/08 05:52:27;;;;;;;4.82;3.10;;;;;;;;;;4935061;29;20099;-59
2022/06/08 05:54:53;;;;;;;6.25;2.95;;;;;;;;;;4935831;29;20567;-60
2022/06/08 05:57:20;;;;;;;4.50;2.50;;;;;;;;;;4936504;29;20032;-59
2022/06/08 05:59:46;;;;;;;6.35;2.33;;;;;;;;;;4935079;29;20068;-58
2022/06/08 06:02:13;;;;;;;4.40;2.13;;;;;;;;;;4936104;29;20054;-58
2022/06/08 06:04:39;;;;;;;5.72;2.20;;;;;;;;;;4936631;29;20032;-58
2022/06/08 06:07:05;;;;;;;4.20;2.25;;;;;;;;;;4936036;29;20135;-57
2022/06/08 06:09:32;;;;;;;4.72;2.15;;;;;;;;;;4935328;29;20044;-60
2022/06/08 06:11:58;;;;;;;8.15;2.30;;;;;;;;;;4935813;29;20116;-58
2022/06/08 06:14:24;;;;;;;8.73;2.00;;;;;;;;;;4935407;29;20031;-58
2022/06/08 06:16:50;;;;;;;5.70;2.20;;;;;;;;;;4935052;29;20023;-58
2022/06/08 06:19:16;;;;;;;9.93;2.20;;;;;;;;;;4933912;29;20031;-58
2022/06/08 06:21:42;;;;;;;3.70;1.98;;;;;;;;;;4935107;29;20032;-58
2022/06/08 06:24:08;;;;;;;4.85;2.13;;;;;;;;;;4934557;29;20420;-59
2022/06/08 06:26:35;;;;;;;7.50;2.38;;;;;;;;;;4936223;29;20099;-59
2022/06/08 06:29:01;;;;;;;6.25;2.10;;;;;;;;;;4936008;29;20031;-61
2022/06/08 06:31:30;;;;;;;6.57;2.50;;;;;;;;;;4936496;29;20471;-60
2022/06/08 06:33:56;;;;;;;8.82;2.50;;;;;;;;;;4936284;29;20035;-59
2022/06/08 06:36:22;;;;;;;3.45;2.20;;;;;;;;;;4936214;29;20032;-58
2022/06/08 06:38:48;;;;;;;4.25;2.30;;;;;;;;;;4934475;29;20368;-60
2022/06/08 06:41:17;;;;;;;5.20;2.10;;;;;;;;;;4935844;29;20059;-59
2022/06/08 06:43:43;;;;;;;7.28;2.00;;;;;;;;;;4935875;29;20031;-59
2022/06/08 06:46:13;;;;;;;2.42;1.80;;;;;;;;;;4918094;29;20471;-63
2022/06/08 06:48:39;;;;;;;4.80;1.85;;;;;;;;;;4936039;29;20023;-59
2022/06/08 06:51:06;;;;;;;2.92;1.85;;;;;;;;;;4935703;29;20024;-60
2022/06/08 06:53:32;;;;;;;3.92;2.20;;;;;;;;;;4934722;29;20118;-60
2022/06/08 06:55:58;;;;;;;3.78;1.90;;;;;;;;;;4934769;29;20095;-58
2022/06/08 06:58:24;;;;;;;3.72;1.80;;;;;;;;;;4917832;29;20035;-58
2022/06/08 07:00:51;;;;;;;5.55;1.90;;;;;;;;;;4935172;29;20118;-59
2022/06/08 07:03:17;;;;;;;4.85;1.80;;;;;;;;;;4931211;29;20075;-61
2022/06/08 07:05:43;;;;;;;11.25;2.25;;;;;;;;;;4935525;29;20030;-57
2022/06/08 07:08:09;;;;;;;2.83;1.90;;;;;;;;;;4935673;29;20031;-57
2022/06/08 07:10:39;;;;;;;6.32;1.70;;;;;;;;;;4935452;29;20164;-60
2022/06/08 07:13:05;;;;;;;4.45;1.88;;;;;;;;;;4935027;29;20476;-60
2022/06/08 07:15:31;;;;;;;6.80;2.10;;;;;;;;;;4935234;29;20032;-59
2022/06/08 07:17:58;;;;;;;5.75;1.60;;;;;;;;;;4934784;29;20019;-61
2022/06/08 07:20:24;;;;;;;8.18;2.30;;;;;;;;;;4934219;29;20117;-58
2022/06/08 07:22:50;;;;;;;6.75;2.30;;;;;;;;;;4932523;29;20468;-62
2022/06/08 07:25:18;;;;;;;5.50;2.10;;;;;;;;;;4932337;29;20471;-58
2022/06/08 07:27:44;;;;;;;4.18;2.20;;;;;;;;;;4932771;29;20142;-58
2022/06/08 07:30:11;;;;;;;5.95;3.35;;;;;;;;;;4934790;29;20456;-59
2022/06/08 07:32:37;;;;;;;3.42;2.17;;;;;;;;;;4934547;29;20771;-57
2022/06/08 07:35:05;;;;;;;3.88;2.30;;;;;;;;;;4934538;29;20028;-58
2022/06/08 07:37:32;;;;;;;5.28;2.17;;;;;;;;;;4934424;29;20036;-58
2022/06/08 07:39:58;;;;;;;4.57;2.30;;;;;;;;;;4934015;29;20036;-58
2022/06/08 07:42:24;;;;;;;4.35;2.08;;;;;;;;;;4933919;29;20054;-57
2022/06/08 07:44:50;;;;;;;4.25;2.20;;;;;;;;;;4934457;29;20110;-63
2022/06/08 07:47:16;;;;;;;5.25;2.25;;;;;;;;;;4934464;29;20066;-59
2022/06/08 07:49:49;;;;;;;5.85;2.50;;;;;;;;;;4935126;29;20023;-59
2022/06/08 07:52:20;;;;;;;3.22;2.00;;;;;;;;;;4934413;29;20024;-59
2022/06/08 07:54:47;;;;;;;5.43;2.05;;;;;;;;;;4935022;29;20027;-59
2022/06/08 07:57:17;;;;;;;8.30;2.05;;;;;;;;;;4934131;29;20039;-59
2022/06/08 07:59:44;;;;;;;5.00;2.40;;;;;;;;;;4934809;29;20019;-58
2022/06/08 08:02:11;;;;;;;5.95;2.10;;;;;;;;;;4934671;29;20031;-60
2022/06/08 08:04:37;;;;;;;5.72;3.78;;;;;;;;;;4934653;29;20058;-58
2022/06/08 08:07:04;;;;;;;8.98;3.70;;;;;;;;;;4934197;29;20028;-58
2022/06/08 08:09:33;;;;;;;4.28;2.42;;;;;;;;;;4933654;29;20034;-58
2022/06/08 08:12:00;;;;;;;12.15;4.85;;;;;;;;;;4933721;29;20034;-57
2022/06/08 08:14:26;;;;;;;11.10;4.13;;;;;;;;;;4933973;29;20048;-57
2022/06/08 08:16:52;;;;;;;8.02;4.53;;;;;;;;;;4933836;29;20028;-58
2022/06/08 08:19:22;;;;;;;6.75;4.10;;;;;;;;;;4933931;29;20023;-58
2022/06/08 08:21:49;;;;;;;6.43;5.30;;;;;;;;;;4931137;29;20140;-58
2022/06/08 08:24:15;;;;;;;10.80;5.72;;;;;;;;;;4933634;29;20111;-58
2022/06/08 08:26:42;;;;;;;9.10;5.38;;;;;;;;;;4932767;29;20111;-58
2022/06/08 08:29:08;;;;;;;7.55;4.97;;;;;;;;;;4932739;29;20408;-58
2022/06/08 08:31:35;;;;;;;7.47;4.47;;;;;;;;;;4933367;29;20110;-59
2022/06/08 08:34:01;;;;;;;8.60;5.55;;;;;;;;;;4933161;29;20028;-62
2022/06/08 08:36:27;;;;;;;9.55;5.97;;;;;;;;;;4933285;29;20115;-58
2022/06/08 08:38:53;;;;;;;9.25;5.30;;;;;;;;;;4933172;29;20460;-58
2022/06/08 08:44:07;;;;;;;12.23;6.38;;;;;;;;;;4932579;29;20490;-62
2022/06/08 08:46:56;;;;;;;10.57;6.57;;;;;;;;;;4932387;29;20070;-60
2022/06/08 08:49:23;;;;;;;10.70;7.28;;;;;;;;;;4934467;29;20035;-61
2022/06/08 08:51:55;;;;;;;8.60;6.25;;;;;;;;;;4933741;29;20031;-60
2022/06/08 08:54:34;;;;;;;10.77;7.20;;;;;;;;;;4933548;29;20059;-60
2022/06/08 08:57:20;;;;;;;11.52;7.13;;;;;;;;;;4933613;29;20092;-59
2022/06/08 08:59:48;;;;;;;13.98;7.10;;;;;;;;;;4933103;29;20062;-61
2022/06/08 09:03:14;;;;;;;12.00;5.97;;;;;;;;;;4933028;29;20043;-59
2022/06/08 09:05:11;;;;;;;12.20;6.68;;;;;;;;;;4920021;29;20036;-60
2022/06/08 09:07:37;;;;;;;12.60;6.93;;;;;;;;;;4932795;29;20395;-59
2022/06/08 09:10:04;;;;;;;7.25;5.57;;;;;;;;;;4935090;29;20023;-58
2022/06/08 09:12:30;;;;;;;13.40;6.80;;;;;;;;;;4936808;29;20035;-60
2022/06/08 09:15:01;;;;;;;12.68;6.30;;;;;;;;;;4936534;29;20095;-61
2022/06/08 09:17:35;;;;;;;13.98;6.30;;;;;;;;;;4935881;29;20035;-60
2022/06/08 09:20:03;;;;;;;11.05;7.05;;;;;;;;;;4933604;29;20475;-58
2022/06/08 09:22:31;;;;;;;7.90;6.18;;;;;;;;;;4935837;29;20554;-60
2022/06/08 09:25:23;;;;;;;9.73;6.18;;;;;;;;;;4932961;29;20471;-60
2022/06/08 09:27:50;;;;;;;9.25;6.45;;;;;;;;;;4931792;29;20472;-58
2022/06/08 09:30:20;;;;;;;12.50;5.82;;;;;;;;;;4936204;29;20111;-59
2022/06/08 09:32:52;;;;;;;10.45;6.15;;;;;;;;;;4936135;29;20031;-58
2022/06/08 09:35:21;;;;;;;8.65;5.72;;;;;;;;;;4935632;29;20023;-58
2022/06/08 09:37:49;;;;;;;13.48;6.03;;;;;;;;;;4936739;29;20028;-58
2022/06/08 09:40:36;;;;;;;9.60;5.78;;;;;;;;;;4936919;29;20039;-58
2022/06/08 09:43:18;;;;;;;9.13;5.68;;;;;;;;;;4935524;29;20079;-58
2022/06/08 09:45:52;;;;;;;11.13;5.73;;;;;;;;;;4936117;29;20110;-58
2022/06/08 09:51:28;;;;;;;8.13;6.45;;;;;;;;;;4933722;29;20710;-60
2022/06/08 09:53:57;;;;;;;9.25;6.90;;;;;;;;;;4933735;29;20023;-57
2022/06/08 09:56:36;;;;;;;7.90;5.53;;;;;;;;;;4935085;29;20382;-57
2022/06/08 09:59:28;;;;;;;10.32;6.35;;;;;;;;;;4935599;29;20483;-60
2022/06/08 10:02:04;;;;;;;9.00;6.22;;;;;;;;;;4912641;29;20048;-58
2022/06/08 10:04:37;;;;;;;10.15;6.75;;;;;;;;;;4931125;29;20370;-61
2022/06/08 10:07:13;;;;;;;13.85;6.85;;;;;;;;;;4923770;29;20032;-58
2022/06/08 10:09:54;;;;;;;10.80;6.85;;;;;;;;;;4927294;29;20027;-59
2022/06/08 10:12:29;;;;;;;12.05;6.90;;;;;;;;;;4935145;29;20035;-57
2022/06/08 10:15:14;;;;;;;9.25;5.25;;;;;;;;;;4934448;29;20023;-58
2022/06/08 10:17:43;;;;;;;9.40;5.78;;;;;;;;;;4927239;29;20031;-58
2022/06/08 10:20:13;;;;;;;10.25;5.40;;;;;;;;;;4933468;29;20028;-60
2022/06/08 10:22:42;;;;;;;7.30;5.57;;;;;;;;;;4934856;29;20090;-58
2022/06/08 10:25:08;;;;;;;7.88;5.90;;;;;;;;;;4934398;29;20118;-58
2022/06/08 10:27:41;;;;;;;12.15;8.27;;;;;;;;;;4935101;29;20404;-60
2022/06/08 10:30:07;;;;;;;11.27;7.47;;;;;;;;;;4927618;29;20019;-61
2022/06/08 10:32:36;;;;;;;12.43;7.68;;;;;;;;;;4928812;29;20087;-58
2022/06/08 10:35:16;;;;;;;10.63;7.70;;;;;;;;;;4933387;29;20023;-58
2022/06/08 10:37:42;;;;;;;7.35;6.38;;;;;;;;;;4926631;29;20416;-59
2022/06/08 10:40:22;;;;;;;11.57;7.57;;;;;;;;;;4934653;29;20024;-60
2022/06/08 10:42:49;;;;;;;8.13;6.93;;;;;;;;;;4935339;29;20043;-59
2022/06/08 10:45:26;;;;;;;10.32;7.20;;;;;;;;;;4935701;29;20034;-59
2022/06/08 10:48:19;;;;;;;9.30;6.68;;;;;;;;;;4924869;29;20053;-59
2022/06/08 10:50:48;;;;;;;7.15;5.88;;;;;;;;;;4927360;29;20040;-59
2022/06/08 10:56:23;;;;;;;9.05;7.22;;;;;;;;;;4943261;29;20055;-58
2022/06/08 10:59:08;;;;;;;12.23;8.18;;;;;;;;;;4945441;29;20023;-58
2022/06/08 11:01:55;;;;;;;9.02;6.15;;;;;;;;;;4943405;29;20479;-61
2022/06/08 11:04:31;;;;;;;10.07;7.25;;;;;;;;;;4939049;29;20510;-59
2022/06/08 11:07:10;;;;;;;9.85;6.85;;;;;;;;;;4935585;29;20036;-59
2022/06/08 11:09:36;;;;;;;8.80;6.57;;;;;;;;;;4935661;29;20043;-61
2022/06/08 11:12:04;;;;;;;11.18;6.60;;;;;;;;;;4935459;29;20031;-58
2022/06/08 11:14:48;;;;;;;10.85;7.68;;;;;;;;;;4934954;29;20415;-59
2022/06/08 11:17:33;;;;;;;9.70;7.43;;;;;;;;;;4935021;29;20055;-58
2022/06/08 11:20:04;;;;;;;13.35;6.45;;;;;;;;;;4935522;29;20046;-59
2022/06/08 11:22:31;;;;;;;14.07;9.30;;;;;;;;;;4935067;29;20043;-58
2022/06/08 11:24:59;;;;;;;13.25;7.30;;;;;;;;;;4935119;29;20039;-59
2022/06/08 11:27:32;;;;;;;11.20;6.90;;;;;;;;;;4935051;29;20484;-59
2022/06/08 11:29:58;;;;;;;12.55;7.00;;;;;;;;;;4935096;29;20452;-59
2022/06/08 11:32:38;;;;;;;9.05;6.30;;;;;;;;;;4934344;29;20035;-59
2022/06/08 11:35:17;;;;;;;10.38;7.50;;;;;;;;;;4934391;29;20086;-59
2022/06/08 11:37:58;;;;;;;9.60;7.93;;;;;;;;;;4941868;29;20023;-59
2022/06/08 11:40:30;;;;;;;12.52;7.35;;;;;;;;;;4940186;29;20059;-58
2022/06/08 11:43:00;;;;;;;12.07;8.77;;;;;;;;;;4940684;29;20031;-59
2022/06/08 11:45:36;;;;;;;19.38;13.90;;;;;;;;;;4946479;29;20035;-59
2022/06/08 11:48:13;;;;;;;9.05;6.93;;;;;;;;;;4940666;29;20036;-58
2022/06/08 11:50:47;;;;;;;10.60;7.20;;;;;;;;;;4942489;29;20020;-57
2022/06/08 11:53:36;;;;;;;11.20;7.15;;;;;;;;;;4945030;29;20023;-59
2022/06/08 11:56:02;;;;;;;14.38;7.25;;;;;;;;;;4889906;29;20120;-59
2022/06/08 11:58:29;;;;;;;13.52;7.38;;;;;;;;;;4902500;29;20045;-60
2022/06/08 12:00:57;;;;;;;11.43;7.82;;;;;;;;;;4900582;29;20127;-60
2022/06/08 12:03:35;;;;;;;9.10;7.22;;;;;;;;;;4900711;29;20047;-59
2022/06/08 12:06:04;;;;;;;14.57;8.20;;;;;;;;;;4903000;28;20591;-59
2022/06/08 12:08:33;;;;;;;7.43;6.35;;;;;;;;;;4902961;29;20131;-61
2022/06/08 12:11:00;;;;;;;7.57;6.55;;;;;;;;;;4901371;29;20035;-59
2022/06/08 12:13:27;;;;;;;8.52;6.72;;;;;;;;;;4899077;29;20504;-58
2022/06/08 12:15:54;;;;;;;11.95;6.63;;;;;;;;;;4899236;29;20073;-60
2022/06/08 12:18:24;;;;;;;13.25;8.85;;;;;;;;;;4902204;29;20020;-58
2022/06/08 12:21:01;;;;;;;11.10;7.25;;;;;;;;;;4900270;29;20520;-58
2022/06/08 12:23:55;;;;;;;10.88;8.00;;;;;;;;;;4901215;29;20048;-60
2022/06/08 12:26:22;;;;;;;9.30;6.68;;;;;;;;;;4899895;29;20453;-58
2022/06/08 12:29:01;;;;;;;8.68;6.63;;;;;;;;;;4901601;29;20556;-58
2022/06/08 12:31:31;;;;;;;10.82;6.32;;;;;;;;;;4894543;29;20079;-58
2022/06/08 12:33:57;;;;;;;13.52;6.90;;;;;;;;;;4926186;29;20100;-68
2022/06/08 12:36:27;;;;;;;7.63;6.28;;;;;;;;;;4933329;29;20070;-60
2022/06/08 12:39:14;;;;;;;11.80;6.47;;;;;;;;;;4933306;29;20455;-64
2022/06/08 12:41:40;;;;;;;8.73;6.63;;;;;;;;;;4933118;29;20036;-66
2022/06/08 12:44:08;;;;;;;8.43;6.72;;;;;;;;;;4932584;29;20034;-63
2022/06/08 12:46:35;;;;;;;10.80;9.02;;;;;;;;;;4933386;29;20091;-65
2022/06/08 12:49:01;;;;;;;8.52;6.72;;;;;;;;;;4933138;29;20027;-59
2022/06/08 12:51:32;;;;;;;9.65;8.02;;;;;;;;;;4933017;29;20091;-59
2022/06/08 12:53:59;;;;;;;11.82;7.70;;;;;;;;;;4932945;29;20552;-59
2022/06/08 12:56:25;;;;;;;29.33;14.38;;;;;;;;;;4932842;29;20035;-61
2022/06/08 12:58:52;;;;;;;10.82;6.45;;;;;;;;;;4932515;29;20078;-59
2022/06/08 13:01:22;;;;;;;9.35;6.45;;;;;;;;;;4932558;29;20048;-60
2022/06/08 13:03:49;;;;;;;8.60;6.07;;;;;;;;;;4932816;29;20016;-63
2022/06/08 13:06:15;;;;;;;17.35;9.50;;;;;;;;;;4932991;29;20534;-61
2022/06/08 13:08:41;;;;;;;19.67;10.07;;;;;;;;;;4933084;29;20044;-60
2022/06/08 13:11:16;;;;;;;67.63;24.80;;;;;;;;;;4932912;29;20028;-62
2022/06/08 13:13:43;;;;;;;58.83;25.40;;;;;;;;;;4932631;29;20070;-60
2022/06/08 13:16:15;;;;;;;10.25;6.60;;;;;;;;;;4932962;29;20055;-60
2022/06/08 13:18:41;;;;;;;71.00;30.02;;;;;;;;;;4932741;29;20032;-58
2022/06/08 13:21:07;;;;;;;62.58;27.48;;;;;;;;;;4932316;29;20120;-61
2022/06/08 13:23:35;;;;;;;50.88;23.80;;;;;;;;;;4932125;29;20055;-59
2022/06/08 13:26:01;;;;;;;18.33;10.93;;;;;;;;;;4932075;29;20067;-59
2022/06/08 13:28:29;;;;;;;27.30;14.27;;;;;;;;;;4932087;29;20035;-57
2022/06/08 13:30:56;;;;;;;13.02;7.70;;;;;;;;;;4915378;29;20038;-62
2022/06/08 13:36:14;;;;;;;31.33;14.48;;;;;;;;;;4932935;29;20119;-65
2022/06/08 13:38:40;;;;;;;8.48;6.55;;;;;;;;;;4932332;29;20433;-59
2022/06/08 13:41:06;;;;;;;9.07;6.45;;;;;;;;;;4931957;29;20044;-60
2022/06/08 13:43:33;;;;;;;14.27;6.60;;;;;;;;;;4932384;29;20475;-59
2022/06/08 13:45:59;;;;;;;17.52;9.27;;;;;;;;;;4932151;29;20111;-58
2022/06/08 13:48:25;;;;;;;8.70;6.78;;;;;;;;;;4932223;29;20392;-58
2022/06/08 13:51:21;;;;;;;9.85;6.88;;;;;;;;;;4931293;29;20050;-59
2022/06/08 13:54:07;;;;;;;10.65;7.05;;;;;;;;;;4931406;29;20365;-60
2022/06/08 13:59:37;;;;;;;10.13;7.05;;;;;;;;;;4934979;29;20034;-59
2022/06/08 14:02:24;;;;;;;12.50;7.03;;;;;;;;;;4935220;29;20546;-58
2022/06/08 14:04:54;;;;;;;9.75;6.45;;;;;;;;;;4935012;29;20059;-59
2022/06/08 14:13:35;;;;;;;12.27;7.78;;;;;;;;;;4934885;29;20095;-57
2022/06/08 14:16:02;;;;;;;7.97;6.00;;;;;;;;;;4857477;29;20093;-61
2022/06/08 14:18:31;;;;;;;8.63;5.93;;;;;;;;;;4857166;29;20038;-58
2022/06/08 14:23:46;;;;;;;8.85;6.10;;;;;;;;;;4856075;29;20040;-59
2022/06/08 14:26:31;;;;;;;9.90;6.10;;;;;;;;;;4856503;29;20046;-58
2022/06/08 14:28:58;;;;;;;6.78;6.10;;;;;;;;;;4856070;29;20033;-59
2022/06/08 14:31:43;;;;;;;12.50;6.65;;;;;;;;;;4856464;29;20029;-59
2022/06/08 14:34:38;;;;;;;9.30;6.82;;;;;;;;;;4856940;29;20072;-60
2022/06/08 14:37:26;;;;;;;11.15;7.03;;;;;;;;;;4819652;29;20093;-58
2022/06/08 14:39:52;;;;;;;16.67;7.15;;;;;;;;;;4819277;29;20046;-60
2022/06/08 14:42:27;;;;;;;15.40;6.38;;;;;;;;;;4819230;29;20103;-59
2022/06/08 14:44:57;;;;;;;14.07;6.35;;;;;;;;;;4819486;29;20391;-58
2022/06/08 14:47:28;;;;;;;11.18;7.88;;;;;;;;;;4819570;29;20403;-58
2022/06/08 14:49:56;;;;;;;9.77;7.05;;;;;;;;;;4819513;29;20088;-59
2022/06/08 14:52:28;;;;;;;9.80;6.93;;;;;;;;;;4854377;29;20052;-58
2022/06/08 14:54:54;;;;;;;11.68;7.57;;;;;;;;;;4892885;29;20057;-59
2022/06/08 14:57:36;;;;;;;11.50;8.10;;;;;;;;;;4893342;29;20111;-62
2022/06/08 15:00:25;;;;;;;12.55;7.95;;;;;;;;;;4892987;29;20091;-61
2022/06/08 15:03:06;;;;;;;10.23;7.18;;;;;;;;;;4891076;29;20040;-59
2022/06/08 15:05:52;;;;;;;12.13;7.67;;;;;;;;;;4891936;29;20040;-61
2022/06/08 15:08:18;;;;;;;13.55;10.38;;;;;;;;;;4892475;29;20039;-61
2022/06/08 15:14:02;;;;;;;14.18;7.65;;;;;;;;;;4917349;29;20516;-59
2022/06/08 15:16:47;;;;;;;12.50;7.03;;;;;;;;;;4931834;29;20031;-58
2022/06/08 15:19:38;;;;;;;11.52;7.63;;;;;;;;;;4940899;29;20280;-57
2022/06/08 15:22:11;;;;;;;8.68;7.47;;;;;;;;;;4947667;29;20043;-60
2022/06/08 15:25:09;;;;;;;12.25;7.75;;;;;;;;;;4928512;29;20460;-60
2022/06/08 15:27:38;;;;;;;11.07;8.57;;;;;;;;;;4923255;29;20060;-60
2022/06/08 15:30:05;;;;;;;11.48;8.00;;;;;;;;;;4946079;29;20035;-58
2022/06/08 15:35:26;;;;;;;14.95;10.02;;;;;;;;;;4943160;29;21374;-59
2022/06/08 15:38:10;;;;;;;11.45;9.43;;;;;;;;;;4944374;29;20118;-59
2022/06/08 15:40:36;;;;;;;14.57;10.88;;;;;;;;;;4934853;29;20031;-58
2022/06/08 15:43:11;;;;;;;12.25;11.05;;;;;;;;;;4944841;29;20440;-59
2022/06/08 15:45:55;;;;;;;14.18;11.18;;;;;;;;;;4942668;29;20112;-58
2022/06/08 15:51:15;;;;;;;14.25;11.13;;;;;;;;;;4936371;29;20509;-58
2022/06/08 15:54:09;;;;;;;15.48;10.98;;;;;;;;;;4942748;29;20698;-61
2022/06/08 15:56:37;;;;;;;14.98;10.77;;;;;;;;;;4935042;29;20102;-58
2022/06/08 15:59:37;;;;;;;13.70;10.75;;;;;;;;;;4944088;29;20033;-58
2022/06/08 16:08:08;;;;;;;13.45;11.05;;;;;;;;;;4942997;29;20046;-58
2022/06/08 16:10:53;;;;;;;14.73;12.00;;;;;;;;;;4934189;29;20090;-63
2022/06/08 16:16:12;;;;;;;14.15;11.82;;;;;;;;;;4944665;29;20066;-59
2022/06/08 16:18:50;;;;;;;14.32;12.60;;;;;;;;;;4932590;29;20461;-60
2022/06/08 16:21:24;;;;;;;13.95;12.48;;;;;;;;;;4934377;29;20086;-59
2022/06/08 16:24:08;;;;;;;17.80;15.45;;;;;;;;;;4942599;29;20110;-58
2022/06/08 16:26:42;;;;;;;15.57;13.63;;;;;;;;;;4933228;29;20042;-63
2022/06/08 16:29:08;;;;;;;18.13;11.90;;;;;;;;;;4941581;29;20043;-61
2022/06/08 16:31:37;;;;;;;15.52;11.98;;;;;;;;;;4940726;29;20042;-61
2022/06/08 16:34:20;;;;;;;16.20;12.57;;;;;;;;;;4935028;29;20476;-63
2022/06/08 16:37:04;;;;;;;15.70;13.90;;;;;;;;;;4915941;29;20031;-61
2022/06/08 16:39:49;;;;;;;16.85;13.63;;;;;;;;;;4939442;29;20023;-62
2022/06/08 16:42:24;;;;;;;17.95;13.80;;;;;;;;;;4933526;29;20106;-59
2022/06/08 16:47:38;;;;;;;15.57;13.35;;;;;;;;;;4941194;29;20074;-58
2022/06/08 16:50:11;;;;;;;18.10;14.55;;;;;;;;;;4940663;29;20341;-61
2022/06/08 16:52:56;;;;;;;20.48;13.85;;;;;;;;;;4945723;29;20626;-60
2022/06/08 16:55:40;;;;;;;20.55;15.00;;;;;;;;;;4938904;29;20384;-59
2022/06/08 17:06:29;;;;;;;17.20;12.98;;;;;;;;;;4932480;29;20049;-60
2022/06/08 17:09:14;;;;;;;15.75;12.05;;;;;;;;;;4943390;29;20031;-58
2022/06/08 17:11:47;;;;;;;15.30;13.18;;;;;;;;;;4940477;29;20372;-59
2022/06/08 17:14:32;;;;;;;17.30;12.70;;;;;;;;;;4932725;29;20484;-59
2022/06/08 17:20:13;;;;;;;19.55;15.73;;;;;;;;;;4938403;29;20130;-60
2022/06/08 17:22:39;;;;;;;19.63;16.45;;;;;;;;;;4934853;29;20086;-59
2022/06/08 17:25:10;;;;;;;26.05;15.13;;;;;;;;;;4945201;29;20150;-60
2022/06/08 17:27:37;;;;;;;18.98;14.65;;;;;;;;;;4928235;29;20523;-59
2022/06/08 17:30:04;;;;;;;18.80;14.40;;;;;;;;;;4939218;29;20024;-59
2022/06/08 17:32:30;;;;;;;15.98;13.32;;;;;;;;;;4952925;29;20114;-58
2022/06/08 17:34:56;;;;;;;24.25;18.33;;;;;;;;;;4942309;29;20087;-63
2022/06/08 17:37:22;;;;;;;21.05;17.08;;;;;;;;;;4947177;29;20035;-60
2022/06/08 17:39:48;;;;;;;15.18;12.68;;;;;;;;;;4948869;29;20027;-59
2022/06/08 17:42:25;;;;;;;19.70;9.07;;;;;;;;;;4940373;29;20066;-59
2022/06/08 17:44:52;;;;;;;16.08;9.95;;;;;;;;;;4922140;29;20023;-58
2022/06/08 17:47:20;;;;;;;14.02;10.05;;;;;;;;;;4944589;29;20030;-59
2022/06/08 17:49:46;;;;;;;10.35;6.15;;;;;;;;;;4946516;29;20029;-60
2022/06/08 17:52:12;;;;;;;12.65;7.00;;;;;;;;;;4955654;29;20490;-63
2022/06/08 17:54:38;;;;;;;9.88;6.78;;;;;;;;;;4939322;29;20479;-59
2022/06/08 17:57:05;;;;;;;12.02;6.70;;;;;;;;;;4949444;29;20023;-60
2022/06/08 17:59:31;;;;;;;10.43;6.43;;;;;;;;;;4946332;29;20051;-59
2022/06/08 18:01:57;;;;;;;12.32;6.63;;;;;;;;;;4941934;29;20472;-58
2022/06/08 18:04:23;;;;;;;20.27;11.13;;;;;;;;;;4952224;29;20094;-60
2022/06/08 18:06:50;;;;;;;11.30;6.68;;;;;;;;;;4940746;29;20038;-59
2022/06/08 18:09:17;;;;;;;9.35;6.15;;;;;;;;;;4947007;29;20034;-59
2022/06/08 18:11:59;;;;;;;5.68;4.45;;;;;;;;;;4947466;29;20023;-61
2022/06/08 18:14:26;;;;;;;8.90;5.43;;;;;;;;;;4939363;29;20517;-59
2022/06/08 18:16:52;;;;;;;9.00;4.45;;;;;;;;;;4950594;29;20479;-59
2022/06/08 18:19:18;;;;;;;4.53;3.22;;;;;;;;;;4944084;29;20024;-59
2022/06/08 18:21:44;;;;;;;9.07;4.15;;;;;;;;;;4937361;29;20042;-59
2022/06/08 18:24:11;;;;;;;6.15;3.67;;;;;;;;;;4950814;29;20431;-60
2022/06/08 18:26:37;;;;;;;5.90;3.17;;;;;;;;;;4938962;29;20422;-60
2022/06/08 18:29:04;;;;;;;8.52;3.63;;;;;;;;;;4948527;29;20036;-59
2022/06/08 18:31:30;;;;;;;7.57;3.25;;;;;;;;;;4945639;29;20483;-60
2022/06/08 18:33:56;;;;;;;5.57;3.15;;;;;;;;;;4941427;29;20039;-59
2022/06/08 18:36:24;;;;;;;6.25;3.80;;;;;;;;;;4951674;29;20035;-59
2022/06/08 18:38:50;;;;;;;5.60;3.75;;;;;;;;;;4940196;29;20463;-62
2022/06/08 18:41:18;;;;;;;6.35;3.53;;;;;;;;;;4945469;29;20035;-59
2022/06/08 18:43:45;;;;;;;6.35;3.65;;;;;;;;;;4947180;29;20110;-60
2022/06/08 18:46:13;;;;;;;6.28;4.20;;;;;;;;;;4939215;29;20118;-59
2022/06/08 18:48:39;;;;;;;6.65;3.45;;;;;;;;;;4951133;29;20758;-60
2022/06/08 18:51:05;;;;;;;14.73;5.88;;;;;;;;;;4941963;29;20023;-60
2022/06/08 18:53:32;;;;;;;7.93;4.40;;;;;;;;;;4944628;29;20043;-60
2022/06/08 18:55:58;;;;;;;7.40;4.38;;;;;;;;;;4948931;29;20046;-60
2022/06/08 18:58:25;;;;;;;6.65;4.40;;;;;;;;;;4938926;29;20032;-60
2022/06/08 19:00:51;;;;;;;10.32;4.45;;;;;;;;;;4949445;29;20026;-60
2022/06/08 19:03:17;;;;;;;5.30;3.90;;;;;;;;;;4943541;29;20023;-60
2022/06/08 19:05:43;;;;;;;6.25;4.22;;;;;;;;;;4942721;29;20027;-60
2022/06/08 19:08:10;;;;;;;7.85;5.00;;;;;;;;;;4935278;29;20027;-60
2022/06/08 19:10:36;;;;;;;7.15;4.57;;;;;;;;;;4935752;29;20032;-60
2022/06/08 19:13:03;;;;;;;7.18;5.38;;;;;;;;;;4935309;29;20028;-60
2022/06/08 19:15:31;;;;;;;12.77;5.97;;;;;;;;;;4935096;29;20024;-60
2022/06/08 19:20:45;;;;;;;8.52;5.88;;;;;;;;;;4935116;29;20779;-60
2022/06/08 19:23:13;;;;;;;8.32;5.35;;;;;;;;;;4935040;29;20032;-60
2022/06/08 19:25:40;;;;;;;7.70;5.30;;;;;;;;;;4935035;29;20035;-61
2022/06/08 19:28:07;;;;;;;8.30;5.68;;;;;;;;;;4934980;29;20051;-60
2022/06/08 19:30:42;;;;;;;7.30;5.43;;;;;;;;;;4934655;29;20527;-60
2022/06/08 19:33:11;;;;;;;9.90;5.95;;;;;;;;;;4935210;29;20404;-60
2022/06/08 19:35:38;;;;;;;8.43;5.72;;;;;;;;;;4935201;29;20050;-60
2022/06/08 19:38:04;;;;;;;8.50;6.35;;;;;;;;;;4935044;29;20556;-62
2022/06/08 19:40:30;;;;;;;10.18;6.72;;;;;;;;;;4935055;29;20031;-60
2022/06/08 19:42:56;;;;;;;11.02;7.20;;;;;;;;;;4934852;29;20484;-60
2022/06/08 19:45:22;;;;;;;12.43;7.38;;;;;;;;;;4934762;29;20038;-60
2022/06/08 19:47:48;;;;;;;17.83;9.88;;;;;;;;;;4934811;29;20032;-60
2022/06/08 19:50:14;;;;;;;11.60;6.97;;;;;;;;;;4934968;29;20476;-60
2022/06/08 19:52:40;;;;;;;8.50;4.90;;;;;;;;;;4927250;29;20455;-60
2022/06/08 19:55:07;;;;;;;8.60;5.78;;;;;;;;;;4928417;29;20171;-61
2022/06/08 19:57:34;;;;;;;9.35;5.85;;;;;;;;;;4927513;29;20036;-59
2022/06/08 20:00:00;;;;;;;7.60;5.60;;;;;;;;;;4927242;29;20031;-60
2022/06/08 20:02:26;;;;;;;10.25;5.40;;;;;;;;;;4929989;29;20039;-61
2022/06/08 20:04:52;;;;;;;9.88;5.43;;;;;;;;;;4933540;29;20038;-60
2022/06/08 20:07:19;;;;;;;9.23;5.68;;;;;;;;;;4933839;29;20095;-62
2022/06/08 20:09:46;;;;;;;8.15;4.97;;;;;;;;;;4933572;29;20030;-62
2022/06/08 20:12:12;;;;;;;7.97;5.25;;;;;;;;;;4933896;29;20040;-62
2022/06/08 20:14:38;;;;;;;6.50;4.65;;;;;;;;;;4933127;29;20770;-60
2022/06/08 20:17:06;;;;;;;6.82;4.93;;;;;;;;;;4933203;29;20499;-61
2022/06/08 20:19:32;;;;;;;9.38;4.47;;;;;;;;;;4933586;29;20507;-60
2022/06/08 20:21:59;;;;;;;9.68;5.88;;;;;;;;;;4930542;29;20044;-59
2022/06/08 20:24:25;;;;;;;10.60;4.93;;;;;;;;;;4926277;29;20032;-62
2022/06/08 20:26:51;;;;;;;10.73;5.55;;;;;;;;;;4927024;29;20044;-62
2022/06/08 20:29:18;;;;;;;12.73;4.18;;;;;;;;;;4926094;29;20069;-61
2022/06/08 20:31:44;;;;;;;6.13;3.80;;;;;;;;;;4926184;29;20059;-61
2022/06/08 20:34:11;;;;;;;5.25;3.55;;;;;;;;;;4929638;29;20031;-60
2022/06/08 20:36:37;;;;;;;6.50;4.15;;;;;;;;;;4933034;29;20034;-61
2022/06/08 20:39:03;;;;;;;8.80;3.80;;;;;;;;;;4932899;29;20031;-59
2022/06/08 20:41:33;;;;;;;6.30;3.53;;;;;;;;;;4932621;29;20039;-60
2022/06/08 20:43:59;;;;;;;6.35;3.17;;;;;;;;;;4932339;29;20421;-60
2022/06/08 20:52:14;;;;;;;5.43;3.13;;;;;;;;;;4929520;29;20746;-62
2022/06/08 20:54:40;;;;;;;5.50;3.60;;;;;;;;;;4926392;29;20039;-60
2022/06/08 20:57:06;;;;;;;5.05;3.63;;;;;;;;;;4926151;29;20498;-60
2022/06/08 20:59:34;;;;;;;8.15;3.20;;;;;;;;;;4926331;29;20159;-61
2022/06/08 21:02:00;;;;;;;5.85;3.72;;;;;;;;;;4927667;29;20067;-60
2022/06/08 21:04:26;;;;;;;5.00;3.63;;;;;;;;;;4927641;29;20035;-62
2022/06/08 21:06:52;;;;;;;7.35;3.55;;;;;;;;;;4932597;29;20119;-60
2022/06/08 21:09:19;;;;;;;5.07;3.10;;;;;;;;;;4932920;29;20032;-65
2022/06/08 21:11:45;;;;;;;7.63;3.45;;;;;;;;;;4932068;29;20177;-61
2022/06/08 21:14:11;;;;;;;9.10;3.72;;;;;;;;;;4932424;29;20027;-62
2022/06/08 21:16:56;;;;;;;4.65;3.60;;;;;;;;;;4932409;29;20481;-62
2022/06/08 21:19:22;;;;;;;8.82;3.90;;;;;;;;;;4932461;29;20369;-60
2022/06/08 21:21:48;;;;;;;6.00;3.70;;;;;;;;;;4930088;29;20727;-61
2022/06/08 21:24:14;;;;;;;9.77;3.60;;;;;;;;;;4926427;29;20032;-60